sensor_id;sensor_type;location;lat;lon;timestamp;pressure;altitude;pressure_sealevel;temperature;humidity
35888;BME280;21990;42.540;23.496;2023-02-11T00:01:30;95109.72;;;-9.08;74.55
35888;BME280;21990;42.540;23.496;2023-02-11T00:03:57;95115.25;;;-9.04;74.32
35888;BME280;21990;42.540;23.496;2023-02-11T00:06:24;95130.47;;;-9.30;74.42
35888;BME280;21990;42.540;23.496;2023-02-11T00:08:50;95122.63;;;-9.35;73.85
35888;BME280;21990;42.540;23.496;2023-02-11T00:11:17;95121.34;;;-9.41;73.99
35888;BME280;21990;42.540;23.496;2023-02-11T00:13:44;95118.44;;;-9.55;74.65
35888;BME280;21990;42.540;23.496;2023-02-11T00:16:13;95123.88;;;-9.55;75.03
35888;BME280;21990;42.540;23.496;2023-02-11T00:18:39;95122.25;;;-9.59;75.23
35888;BME280;21990;42.540;23.496;2023-02-11T00:21:09;95119.47;;;-9.63;74.60
35888;BME280;21990;42.540;23.496;2023-02-11T00:23:35;95117.53;;;-9.63;74.27
35888;BME280;21990;42.540;23.496;2023-02-11T00:26:01;95114.28;;;-9.72;74.85
35888;BME280;21990;42.540;23.496;2023-02-11T00:28:26;95117.75;;;-9.75;75.78
35888;BME280;21990;42.540;23.496;2023-02-11T00:30:56;95125.28;;;-9.65;76.13
35888;BME280;21990;42.540;23.496;2023-02-11T00:33:22;95123.84;;;-9.58;76.21
35888;BME280;21990;42.540;23.496;2023-02-11T00:35:48;95128.19;;;-9.54;76.77
35888;BME280;21990;42.540;23.496;2023-02-11T00:38:13;95130.59;;;-9.49;75.46
35888;BME280;21990;42.540;23.496;2023-02-11T00:40:39;95127.03;;;-9.53;74.23
35888;BME280;21990;42.540;23.496;2023-02-11T00:43:04;95121.50;;;-9.56;74.31
35888;BME280;21990;42.540;23.496;2023-02-11T00:45:30;95124.25;;;-9.56;74.84
35888;BME280;21990;42.540;23.496;2023-02-11T00:47:56;95123.94;;;-9.78;74.62
35888;BME280;21990;42.540;23.496;2023-02-11T00:50:21;95129.91;;;-9.69;74.57
35888;BME280;21990;42.540;23.496;2023-02-11T00:52:47;95117.44;;;-9.70;75.14
35888;BME280;21990;42.540;23.496;2023-02-11T00:55:14;95117.50;;;-9.66;74.56
35888;BME280;21990;42.540;23.496;2023-02-11T00:57:40;95107.66;;;-9.71;75.55
35888;BME280;21990;42.540;23.496;2023-02-11T01:00:06;95111.09;;;-9.77;75.29
35888;BME280;21990;42.540;23.496;2023-02-11T01:02:32;95107.03;;;-9.87;75.00
35888;BME280;21990;42.540;23.496;2023-02-11T01:04:58;95106.13;;;-9.94;74.81
35888;BME280;21990;42.540;23.496;2023-02-11T01:07:25;95107.41;;;-9.88;74.06
35888;BME280;21990;42.540;23.496;2023-02-11T01:09:50;95114.16;;;-9.79;74.55
35888;BME280;21990;42.540;23.496;2023-02-11T01:12:16;95109.56;;;-9.75;74.36
35888;BME280;21990;42.540;23.496;2023-02-11T01:14:42;95102.91;;;-9.77;74.48
35888;BME280;21990;42.540;23.496;2023-02-11T01:17:07;95107.78;;;-10.13;74.82
35888;BME280;21990;42.540;23.496;2023-02-11T01:19:33;95107.44;;;-10.07;74.28
35888;BME280;21990;42.540;23.496;2023-02-11T01:21:58;95097.47;;;-10.00;73.44
35888;BME280;21990;42.540;23.496;2023-02-11T01:24:24;95098.97;;;-10.02;74.37
35888;BME280;21990;42.540;23.496;2023-02-11T01:26:50;95095.34;;;-10.10;75.03
35888;BME280;21990;42.540;23.496;2023-02-11T01:29:15;95095.47;;;-10.03;74.58
35888;BME280;21990;42.540;23.496;2023-02-11T01:31:41;95087.28;;;-10.03;74.51
35888;BME280;21990;42.540;23.496;2023-02-11T01:34:06;95095.16;;;-9.98;74.55
35888;BME280;21990;42.540;23.496;2023-02-11T01:36:31;95092.22;;;-10.12;74.42
35888;BME280;21990;42.540;23.496;2023-02-11T01:38:57;95087.91;;;-10.13;74.06
35888;BME280;21990;42.540;23.496;2023-02-11T01:41:22;95082.44;;;-10.17;73.27
35888;BME280;21990;42.540;23.496;2023-02-11T01:43:49;95091.00;;;-10.15;73.63
35888;BME280;21990;42.540;23.496;2023-02-11T01:49:10;95089.38;;;-10.19;74.85
35888;BME280;21990;42.540;23.496;2023-02-11T01:51:43;95094.47;;;-10.18;74.23
35888;BME280;21990;42.540;23.496;2023-02-11T01:54:15;95075.41;;;-10.18;73.92
35888;BME280;21990;42.540;23.496;2023-02-11T01:57:00;95088.69;;;-10.16;73.72
35888;BME280;21990;42.540;23.496;2023-02-11T02:02:11;95075.34;;;-10.21;73.23
35888;BME280;21990;42.540;23.496;2023-02-11T02:04:45;95083.47;;;-10.25;73.78
35888;BME280;21990;42.540;23.496;2023-02-11T02:07:18;95077.56;;;-10.27;74.06
35888;BME280;21990;42.540;23.496;2023-02-11T02:09:51;95077.56;;;-10.27;73.41
35888;BME280;21990;42.540;23.496;2023-02-11T02:12:20;95081.47;;;-10.28;73.91
35888;BME280;21990;42.540;23.496;2023-02-11T02:14:45;95079.38;;;-10.34;73.62
35888;BME280;21990;42.540;23.496;2023-02-11T02:17:25;95083.13;;;-10.42;73.10
35888;BME280;21990;42.540;23.496;2023-02-11T02:20:08;95082.72;;;-10.44;72.97
35888;BME280;21990;42.540;23.496;2023-02-11T02:23:04;95086.97;;;-10.47;72.55
35888;BME280;21990;42.540;23.496;2023-02-11T02:25:46;95084.09;;;-10.54;72.79
35888;BME280;21990;42.540;23.496;2023-02-11T02:34:53;95073.75;;;-10.68;73.31
35888;BME280;21990;42.540;23.496;2023-02-11T02:40:34;95073.19;;;-10.77;73.12
35888;BME280;21990;42.540;23.496;2023-02-11T02:43:02;95073.56;;;-10.78;73.52
35888;BME280;21990;42.540;23.496;2023-02-11T02:45:28;95077.50;;;-10.76;73.50
35888;BME280;21990;42.540;23.496;2023-02-11T02:47:54;95071.25;;;-10.76;73.85
35888;BME280;21990;42.540;23.496;2023-02-11T02:50:24;95082.88;;;-10.79;73.73
35888;BME280;21990;42.540;23.496;2023-02-11T02:54:03;95085.59;;;-10.98;74.18
35888;BME280;21990;42.540;23.496;2023-02-11T02:56:32;95084.25;;;-11.08;74.28
35888;BME280;21990;42.540;23.496;2023-02-11T02:59:19;95080.16;;;-10.98;73.93
35888;BME280;21990;42.540;23.496;2023-02-11T03:02:28;95077.88;;;-10.96;73.73
35888;BME280;21990;42.540;23.496;2023-02-11T03:05:13;95083.31;;;-10.96;73.32
35888;BME280;21990;42.540;23.496;2023-02-11T03:07:52;95085.97;;;-11.00;73.03
35888;BME280;21990;42.540;23.496;2023-02-11T03:10:30;95079.03;;;-11.17;73.11
35888;BME280;21990;42.540;23.496;2023-02-11T03:12:58;95081.44;;;-11.12;73.16
35888;BME280;21990;42.540;23.496;2023-02-11T03:15:26;95077.06;;;-11.16;73.28
35888;BME280;21990;42.540;23.496;2023-02-11T03:17:55;95080.38;;;-11.07;73.04
35888;BME280;21990;42.540;23.496;2023-02-11T03:20:23;95084.31;;;-11.04;73.40
35888;BME280;21990;42.540;23.496;2023-02-11T03:22:56;95078.53;;;-11.03;73.15
35888;BME280;21990;42.540;23.496;2023-02-11T03:25:29;95085.16;;;-11.00;73.55
35888;BME280;21990;42.540;23.496;2023-02-11T03:28:05;95084.91;;;-11.15;73.65
35888;BME280;21990;42.540;23.496;2023-02-11T03:30:55;95081.97;;;-11.25;73.31
35888;BME280;21990;42.540;23.496;2023-02-11T03:33:59;95077.44;;;-11.18;72.98
35888;BME280;21990;42.540;23.496;2023-02-11T03:36:32;95089.06;;;-11.21;73.53
35888;BME280;21990;42.540;23.496;2023-02-11T03:39:01;95076.59;;;-11.22;73.41
35888;BME280;21990;42.540;23.496;2023-02-11T03:41:30;95089.06;;;-11.21;73.25
35888;BME280;21990;42.540;23.496;2023-02-11T03:43:58;95089.81;;;-11.20;73.06
35888;BME280;21990;42.540;23.496;2023-02-11T03:46:30;95086.41;;;-11.17;72.59
35888;BME280;21990;42.540;23.496;2023-02-11T03:49:03;95085.91;;;-11.23;72.21
35888;BME280;21990;42.540;23.496;2023-02-11T03:51:32;95088.88;;;-11.28;72.45
35888;BME280;21990;42.540;23.496;2023-02-11T03:54:00;95085.31;;;-11.32;72.70
35888;BME280;21990;42.540;23.496;2023-02-11T03:56:29;95087.69;;;-11.30;72.58
35888;BME280;21990;42.540;23.496;2023-02-11T03:58:56;95089.47;;;-11.38;72.68
35888;BME280;21990;42.540;23.496;2023-02-11T04:01:22;95081.66;;;-11.39;73.33
35888;BME280;21990;42.540;23.496;2023-02-11T04:03:48;95079.31;;;-11.41;73.75
35888;BME280;21990;42.540;23.496;2023-02-11T04:06:13;95077.38;;;-11.40;72.43
35888;BME280;21990;42.540;23.496;2023-02-11T04:08:39;95079.31;;;-11.41;72.98
35888;BME280;21990;42.540;23.496;2023-02-11T04:11:05;95067.09;;;-11.66;72.64
35888;BME280;21990;42.540;23.496;2023-02-11T04:13:30;95064.63;;;-11.56;73.58
35888;BME280;21990;42.540;23.496;2023-02-11T04:15:56;95071.69;;;-11.51;73.55
35888;BME280;21990;42.540;23.496;2023-02-11T04:18:21;95075.84;;;-11.57;73.27
35888;BME280;21990;42.540;23.496;2023-02-11T04:20:48;95078.63;;;-11.53;72.60
35888;BME280;21990;42.540;23.496;2023-02-11T04:23:14;95076.25;;;-11.55;73.47
35888;BME280;21990;42.540;23.496;2023-02-11T04:25:40;95067.69;;;-11.57;73.01
35888;BME280;21990;42.540;23.496;2023-02-11T04:28:05;95064.63;;;-11.56;72.29
35888;BME280;21990;42.540;23.496;2023-02-11T04:30:30;95065.69;;;-11.60;72.30
35888;BME280;21990;42.540;23.496;2023-02-11T04:32:57;95072.59;;;-11.63;72.23
35888;BME280;21990;42.540;23.496;2023-02-11T04:35:22;95067.63;;;-11.61;72.77
35888;BME280;21990;42.540;23.496;2023-02-11T04:37:48;95065.44;;;-11.71;72.61
35888;BME280;21990;42.540;23.496;2023-02-11T04:40:13;95068.94;;;-11.70;73.22
35888;BME280;21990;42.540;23.496;2023-02-11T04:42:39;95063.59;;;-11.67;72.85
35888;BME280;21990;42.540;23.496;2023-02-11T04:45:05;95063.38;;;-11.77;72.56
35888;BME280;21990;42.540;23.496;2023-02-11T04:47:32;95064.03;;;-11.84;72.70
35888;BME280;21990;42.540;23.496;2023-02-11T04:49:58;95074.03;;;-11.88;72.02
35888;BME280;21990;42.540;23.496;2023-02-11T04:52:23;95079.47;;;-11.88;72.84
35888;BME280;21990;42.540;23.496;2023-02-11T04:54:49;95071.13;;;-11.79;73.27
35888;BME280;21990;42.540;23.496;2023-02-11T04:57:14;95065.88;;;-11.88;73.45
35888;BME280;21990;42.540;23.496;2023-02-11T04:59:40;95059.31;;;-11.87;73.75
35888;BME280;21990;42.540;23.496;2023-02-11T05:02:05;95050.00;;;-11.86;73.07
35888;BME280;21990;42.540;23.496;2023-02-11T05:04:31;95058.16;;;-11.86;73.00
35888;BME280;21990;42.540;23.496;2023-02-11T05:06:56;95053.41;;;-11.89;73.52
35888;BME280;21990;42.540;23.496;2023-02-11T05:09:22;95051.34;;;-11.95;72.87
35888;BME280;21990;42.540;23.496;2023-02-11T05:11:47;95053.34;;;-11.92;72.43
35888;BME280;21990;42.540;23.496;2023-02-11T05:14:13;95060.38;;;-11.91;73.37
35888;BME280;21990;42.540;23.496;2023-02-11T05:16:38;95057.56;;;-11.95;72.62
35888;BME280;21990;42.540;23.496;2023-02-11T05:19:04;95050.81;;;-12.01;73.20
35888;BME280;21990;42.540;23.496;2023-02-11T05:21:29;95042.66;;;-12.01;72.89
35888;BME280;21990;42.540;23.496;2023-02-11T05:23:55;95050.75;;;-12.05;73.01
35888;BME280;21990;42.540;23.496;2023-02-11T05:26:20;95054.66;;;-12.02;72.74
35888;BME280;21990;42.540;23.496;2023-02-11T05:28:46;95044.97;;;-12.03;73.02
35888;BME280;21990;42.540;23.496;2023-02-11T05:31:11;95047.78;;;-12.15;72.26
35888;BME280;21990;42.540;23.496;2023-02-11T05:33:39;95050.25;;;-12.10;72.49
35888;BME280;21990;42.540;23.496;2023-02-11T05:36:09;95045.22;;;-12.08;72.68
35888;BME280;21990;42.540;23.496;2023-02-11T05:38:34;95047.00;;;-12.16;73.02
35888;BME280;21990;42.540;23.496;2023-02-11T05:41:03;95053.38;;;-12.08;73.52
35888;BME280;21990;42.540;23.496;2023-02-11T05:43:29;95048.38;;;-12.06;73.15
35888;BME280;21990;42.540;23.496;2023-02-11T05:45:55;95050.81;;;-12.01;73.56
35888;BME280;21990;42.540;23.496;2023-02-11T05:48:21;95052.06;;;-11.98;73.03
35888;BME280;21990;42.540;23.496;2023-02-11T05:50:46;95053.78;;;-11.90;73.35
35888;BME280;21990;42.540;23.496;2023-02-11T05:53:12;95050.69;;;-11.89;72.54
35888;BME280;21990;42.540;23.496;2023-02-11T05:55:38;95052.88;;;-12.29;73.01
35888;BME280;21990;42.540;23.496;2023-02-11T05:58:04;95053.75;;;-12.41;73.73
35888;BME280;21990;42.540;23.496;2023-02-11T06:00:29;95062.16;;;-12.30;74.64
35888;BME280;21990;42.540;23.496;2023-02-11T06:02:55;95056.66;;;-12.18;74.50
35888;BME280;21990;42.540;23.496;2023-02-11T06:05:20;95055.75;;;-12.07;75.70
35888;BME280;21990;42.540;23.496;2023-02-11T06:07:46;95052.47;;;-11.96;75.36
35888;BME280;21990;42.540;23.496;2023-02-11T06:10:12;95058.06;;;-11.89;74.90
35888;BME280;21990;42.540;23.496;2023-02-11T06:12:38;95053.31;;;-11.77;74.82
35888;BME280;21990;42.540;23.496;2023-02-11T06:15:04;95059.66;;;-11.69;75.04
35888;BME280;21990;42.540;23.496;2023-02-11T06:17:30;95061.47;;;-11.58;75.54
35888;BME280;21990;42.540;23.496;2023-02-11T06:19:58;95060.06;;;-11.13;77.86
35888;BME280;21990;42.540;23.496;2023-02-11T06:22:24;95064.63;;;-9.84;78.06
35888;BME280;21990;42.540;23.496;2023-02-11T06:24:50;95054.91;;;-8.15;77.94
35888;BME280;21990;42.540;23.496;2023-02-11T06:27:16;95052.63;;;-6.79;71.96
35888;BME280;21990;42.540;23.496;2023-02-11T06:29:43;95053.94;;;-5.63;72.25
35888;BME280;21990;42.540;23.496;2023-02-11T06:32:09;95050.47;;;-4.42;70.37
35888;BME280;21990;42.540;23.496;2023-02-11T06:34:34;95047.16;;;-3.57;69.13
35888;BME280;21990;42.540;23.496;2023-02-11T06:37:00;95047.75;;;-2.94;66.79
35888;BME280;21990;42.540;23.496;2023-02-11T06:39:25;95044.50;;;-2.21;60.75
35888;BME280;21990;42.540;23.496;2023-02-11T06:41:51;95036.84;;;-1.33;64.75
35888;BME280;21990;42.540;23.496;2023-02-11T06:44:16;95044.34;;;-0.87;58.38
35888;BME280;21990;42.540;23.496;2023-02-11T06:46:42;95034.41;;;-0.26;60.32
35888;BME280;21990;42.540;23.496;2023-02-11T06:49:07;95050.19;;;0.13;57.73
35888;BME280;21990;42.540;23.496;2023-02-11T06:51:33;95047.34;;;0.69;53.89
35888;BME280;21990;42.540;23.496;2023-02-11T06:53:59;95029.19;;;0.97;55.82
35888;BME280;21990;42.540;23.496;2023-02-11T06:56:24;95025.63;;;1.12;58.44
35888;BME280;21990;42.540;23.496;2023-02-11T06:58:55;95030.81;;;1.55;58.08
35888;BME280;21990;42.540;23.496;2023-02-11T07:01:22;95039.72;;;1.34;54.21
35888;BME280;21990;42.540;23.496;2023-02-11T07:03:49;95041.50;;;1.40;52.28
35888;BME280;21990;42.540;23.496;2023-02-11T07:06:20;95032.66;;;1.46;55.53
35888;BME280;21990;42.540;23.496;2023-02-11T07:08:59;95025.56;;;1.57;59.11
35888;BME280;21990;42.540;23.496;2023-02-11T07:11:27;95023.06;;;1.63;53.77
35888;BME280;21990;42.540;23.496;2023-02-11T07:13:56;95023.75;;;1.22;52.73
35888;BME280;21990;42.540;23.496;2023-02-11T07:16:24;95028.19;;;1.77;54.88
35888;BME280;21990;42.540;23.496;2023-02-11T07:18:49;95022.84;;;1.70;57.53
35888;BME280;21990;42.540;23.496;2023-02-11T07:21:17;95022.94;;;1.37;57.39
35888;BME280;21990;42.540;23.496;2023-02-11T07:23:44;95022.19;;;0.76;54.89
35888;BME280;21990;42.540;23.496;2023-02-11T07:26:11;95029.31;;;-0.27;56.61
35888;BME280;21990;42.540;23.496;2023-02-11T07:28:38;95026.94;;;-0.09;56.47
35888;BME280;21990;42.540;23.496;2023-02-11T07:31:15;95024.91;;;0.11;61.45
35888;BME280;21990;42.540;23.496;2023-02-11T07:33:42;95016.31;;;-0.30;55.62
35888;BME280;21990;42.540;23.496;2023-02-11T07:36:10;95007.22;;;-0.51;60.80
35888;BME280;21990;42.540;23.496;2023-02-11T07:38:37;95015.53;;;-0.51;58.37
35888;BME280;21990;42.540;23.496;2023-02-11T07:41:06;95014.25;;;-1.05;52.67
35888;BME280;21990;42.540;23.496;2023-02-11T07:43:32;95007.34;;;-0.97;58.65
35888;BME280;21990;42.540;23.496;2023-02-11T07:45:58;95004.53;;;-0.93;57.86
35888;BME280;21990;42.540;23.496;2023-02-11T07:48:24;95000.03;;;-1.07;58.98
35888;BME280;21990;42.540;23.496;2023-02-11T07:50:50;94979.34;;;-1.65;57.44
35888;BME280;21990;42.540;23.496;2023-02-11T07:53:15;94981.56;;;-2.07;58.90
35888;BME280;21990;42.540;23.496;2023-02-11T07:55:42;94985.81;;;-1.99;60.07
35888;BME280;21990;42.540;23.496;2023-02-11T07:58:08;94975.38;;;-2.14;58.73
35888;BME280;21990;42.540;23.496;2023-02-11T08:00:33;94979.97;;;-2.61;57.86
35888;BME280;21990;42.540;23.496;2023-02-11T08:02:59;94975.28;;;-2.98;61.20
35888;BME280;21990;42.540;23.496;2023-02-11T08:05:24;94969.53;;;-2.77;61.38
35888;BME280;21990;42.540;23.496;2023-02-11T08:07:51;94969.28;;;-2.59;62.26
35888;BME280;21990;42.540;23.496;2023-02-11T08:10:17;94980.31;;;-2.59;61.80
35888;BME280;21990;42.540;23.496;2023-02-11T08:12:43;94971.50;;;-2.47;63.30
35888;BME280;21990;42.540;23.496;2023-02-11T08:15:08;94963.66;;;-2.22;63.81
35888;BME280;21990;42.540;23.496;2023-02-11T08:17:35;94956.09;;;-1.91;63.68
35888;BME280;21990;42.540;23.496;2023-02-11T08:20:01;94954.22;;;-1.74;65.27
35888;BME280;21990;42.540;23.496;2023-02-11T08:22:30;94954.53;;;-1.46;66.86
35888;BME280;21990;42.540;23.496;2023-02-11T08:24:56;94954.94;;;-1.04;65.38
35888;BME280;21990;42.540;23.496;2023-02-11T08:27:23;94957.63;;;-0.81;60.40
35888;BME280;21990;42.540;23.496;2023-02-11T08:29:51;94956.91;;;-0.65;60.67
35888;BME280;21990;42.540;23.496;2023-02-11T08:32:16;94951.44;;;-0.49;59.66
35888;BME280;21990;42.540;23.496;2023-02-11T08:34:42;94954.34;;;-0.36;58.38
35888;BME280;21990;42.540;23.496;2023-02-11T08:37:07;94955.38;;;-0.30;58.26
35888;BME280;21990;42.540;23.496;2023-02-11T08:39:33;94952.81;;;-0.21;57.99
35888;BME280;21990;42.540;23.496;2023-02-11T08:41:58;94951.78;;;-0.11;57.46
35888;BME280;21990;42.540;23.496;2023-02-11T08:44:24;94959.69;;;0.07;57.30
35888;BME280;21990;42.540;23.496;2023-02-11T08:46:50;94953.56;;;0.15;57.33
35888;BME280;21990;42.540;23.496;2023-02-11T08:49:16;94951.53;;;0.16;56.57
35888;BME280;21990;42.540;23.496;2023-02-11T08:51:42;94951.31;;;0.26;56.64
35888;BME280;21990;42.540;23.496;2023-02-11T08:54:08;94946.38;;;0.34;56.72
35888;BME280;21990;42.540;23.496;2023-02-11T08:56:35;94948.25;;;0.53;56.87
35888;BME280;21990;42.540;23.496;2023-02-11T08:59:00;94947.19;;;0.63;55.00
35888;BME280;21990;42.540;23.496;2023-02-11T09:01:28;94948.84;;;0.61;54.21
35888;BME280;21990;42.540;23.496;2023-02-11T09:03:55;94952.03;;;0.75;55.84
35888;BME280;21990;42.540;23.496;2023-02-11T09:06:22;94949.06;;;0.82;54.01
35888;BME280;21990;42.540;23.496;2023-02-11T09:08:49;94945.63;;;0.78;55.03
35888;BME280;21990;42.540;23.496;2023-02-11T09:11:17;94947.25;;;0.92;54.43
35888;BME280;21990;42.540;23.496;2023-02-11T09:13:43;94951.97;;;1.08;55.64
35888;BME280;21990;42.540;23.496;2023-02-11T09:16:17;94953.44;;;1.12;54.46
35888;BME280;21990;42.540;23.496;2023-02-11T09:18:43;94940.34;;;1.13;54.29
35888;BME280;21990;42.540;23.496;2023-02-11T09:21:10;94941.25;;;1.22;54.22
35888;BME280;21990;42.540;23.496;2023-02-11T09:23:36;94934.06;;;1.37;55.10
35888;BME280;21990;42.540;23.496;2023-02-11T09:26:09;94936.69;;;1.57;54.39
35888;BME280;21990;42.540;23.496;2023-02-11T09:28:35;94941.88;;;1.42;54.66
35888;BME280;21990;42.540;23.496;2023-02-11T09:31:09;94934.69;;;1.58;53.94
35888;BME280;21990;42.540;23.496;2023-02-11T09:33:36;94938.03;;;1.65;54.40
35888;BME280;21990;42.540;23.496;2023-02-11T09:36:03;94925.25;;;1.68;53.75
35888;BME280;21990;42.540;23.496;2023-02-11T09:38:29;94914.94;;;1.81;53.42
35888;BME280;21990;42.540;23.496;2023-02-11T09:40:55;94918.63;;;1.90;53.64
35888;BME280;21990;42.540;23.496;2023-02-11T09:43:45;94907.03;;;2.05;52.77
35888;BME280;21990;42.540;23.496;2023-02-11T09:46:14;94898.69;;;2.17;53.02
35888;BME280;21990;42.540;23.496;2023-02-11T09:48:42;94902.59;;;2.20;53.37
35888;BME280;21990;42.540;23.496;2023-02-11T09:51:27;94906.81;;;2.37;51.91
35888;BME280;21990;42.540;23.496;2023-02-11T09:54:01;94888.53;;;2.49;52.15
35888;BME280;21990;42.540;23.496;2023-02-11T09:56:29;94892.28;;;2.55;51.18
35888;BME280;21990;42.540;23.496;2023-02-11T09:58:58;94891.38;;;2.58;51.83
35888;BME280;21990;42.540;23.496;2023-02-11T10:01:38;94885.25;;;2.63;51.61
35888;BME280;21990;42.540;23.496;2023-02-11T10:04:28;94879.25;;;2.64;51.49
35888;BME280;21990;42.540;23.496;2023-02-11T10:07:09;94873.03;;;2.60;52.12
35888;BME280;21990;42.540;23.496;2023-02-11T10:17:39;94858.19;;;2.98;50.98
35888;BME280;21990;42.540;23.496;2023-02-11T10:23:00;94853.25;;;3.02;50.63
35888;BME280;21990;42.540;23.496;2023-02-11T10:25:33;94841.22;;;3.05;50.52
35888;BME280;21990;42.540;23.496;2023-02-11T10:28:16;94831.38;;;3.13;50.25
35888;BME280;21990;42.540;23.496;2023-02-11T10:31:02;94833.88;;;3.20;50.08
35888;BME280;21990;42.540;23.496;2023-02-11T10:33:45;94824.94;;;3.25;49.74
35888;BME280;21990;42.540;23.496;2023-02-11T10:36:13;94819.19;;;3.19;50.52
35888;BME280;21990;42.540;23.496;2023-02-11T10:38:40;94813.44;;;3.14;50.79
35888;BME280;21990;42.540;23.496;2023-02-11T10:41:10;94802.16;;;3.17;50.08
35888;BME280;21990;42.540;23.496;2023-02-11T10:43:40;94793.22;;;3.22;47.89
35888;BME280;21990;42.540;23.496;2023-02-11T10:46:14;94796.00;;;3.22;48.69
35888;BME280;21990;42.540;23.496;2023-02-11T10:48:44;94783.94;;;3.25;49.97
35888;BME280;21990;42.540;23.496;2023-02-11T10:54:08;94774.81;;;3.25;50.01
35888;BME280;21990;42.540;23.496;2023-02-11T10:56:45;94771.31;;;3.43;48.97
35888;BME280;21990;42.540;23.496;2023-02-11T10:59:33;94767.94;;;3.48;49.19
35888;BME280;21990;42.540;23.496;2023-02-11T11:04:47;94749.41;;;3.54;48.53
35888;BME280;21990;42.540;23.496;2023-02-11T11:07:24;94749.28;;;3.66;48.89
35888;BME280;21990;42.540;23.496;2023-02-11T11:10:06;94753.13;;;3.60;48.87
35888;BME280;21990;42.540;23.496;2023-02-11T11:17:36;94745.06;;;3.53;47.80
35888;BME280;21990;42.540;23.496;2023-02-11T11:20:32;94732.94;;;3.47;47.99
35888;BME280;21990;42.540;23.496;2023-02-11T11:23:20;94723.69;;;3.50;48.44
35888;BME280;21990;42.540;23.496;2023-02-11T11:26:09;94725.22;;;3.51;46.71
35888;BME280;21990;42.540;23.496;2023-02-11T11:29:06;94720.72;;;3.44;47.19
35888;BME280;21990;42.540;23.496;2023-02-11T11:31:36;94730.44;;;3.40;45.79
35888;BME280;21990;42.540;23.496;2023-02-11T11:34:22;94722.28;;;3.45;47.73
35888;BME280;21990;42.540;23.496;2023-02-11T11:36:50;94729.31;;;3.28;46.45
35888;BME280;21990;42.540;23.496;2023-02-11T11:39:25;94727.00;;;3.26;47.00
35888;BME280;21990;42.540;23.496;2023-02-11T11:42:00;94723.88;;;3.24;47.61
35888;BME280;21990;42.540;23.496;2023-02-11T11:44:36;94726.50;;;3.19;48.07
35888;BME280;21990;42.540;23.496;2023-02-11T11:52:31;94719.56;;;2.93;48.49
35888;BME280;21990;42.540;23.496;2023-02-11T11:55:04;94716.19;;;2.98;48.58
35888;BME280;21990;42.540;23.496;2023-02-11T11:57:36;94707.81;;;2.98;47.87
35888;BME280;21990;42.540;23.496;2023-02-11T12:00:03;94701.75;;;2.90;48.36
35888;BME280;21990;42.540;23.496;2023-02-11T12:24:59;94680.44;;;2.96;47.22
35888;BME280;21990;42.540;23.496;2023-02-11T12:38:37;94664.63;;;2.84;47.87
35888;BME280;21990;42.540;23.496;2023-02-11T12:43:41;94663.66;;;2.78;47.54
35888;BME280;21990;42.540;23.496;2023-02-11T12:46:16;94661.78;;;2.75;47.41
35888;BME280;21990;42.540;23.496;2023-02-11T12:57:33;94652.75;;;2.62;47.99
35888;BME280;21990;42.540;23.496;2023-02-11T13:04:57;94643.56;;;2.52;47.24
35888;BME280;21990;42.540;23.496;2023-02-11T13:07:33;94649.84;;;2.44;47.47
35888;BME280;21990;42.540;23.496;2023-02-11T13:10:24;94629.53;;;2.34;48.15
35888;BME280;21990;42.540;23.496;2023-02-11T13:12:52;94635.09;;;2.34;48.30
35888;BME280;21990;42.540;23.496;2023-02-11T13:15:40;94632.59;;;2.27;48.54
35888;BME280;21990;42.540;23.496;2023-02-11T13:26:51;94624.97;;;1.97;50.93
35888;BME280;21990;42.540;23.496;2023-02-11T13:29:42;94625.88;;;1.94;51.13
35888;BME280;21990;42.540;23.496;2023-02-11T13:32:16;94617.44;;;1.84;51.06
35888;BME280;21990;42.540;23.496;2023-02-11T13:37:21;94621.19;;;1.69;51.52
35888;BME280;21990;42.540;23.496;2023-02-11T13:40:44;94618.53;;;1.65;51.46
35888;BME280;21990;42.540;23.496;2023-02-11T13:42:56;94619.84;;;1.73;52.17
35888;BME280;21990;42.540;23.496;2023-02-11T13:45:37;94620.50;;;1.77;52.05
35888;BME280;21990;42.540;23.496;2023-02-11T13:48:12;94625.25;;;1.77;52.36
35888;BME280;21990;42.540;23.496;2023-02-11T13:50:46;94623.84;;;1.72;53.42
35888;BME280;21990;42.540;23.496;2023-02-11T13:53:13;94625.31;;;1.64;52.67
35888;BME280;21990;42.540;23.496;2023-02-11T13:55:41;94617.09;;;1.61;51.94
35888;BME280;21990;42.540;23.496;2023-02-11T14:00:53;94612.97;;;1.65;52.53
35888;BME280;21990;42.540;23.496;2023-02-11T14:06:10;94619.06;;;1.73;53.83
35888;BME280;21990;42.540;23.496;2023-02-11T14:14:23;94595.09;;;1.66;55.33
35888;BME280;21990;42.540;23.496;2023-02-11T14:19:44;94598.72;;;1.41;55.27
35888;BME280;21990;42.540;23.496;2023-02-11T14:27:27;94593.50;;;1.43;55.14
35888;BME280;21990;42.540;23.496;2023-02-11T14:30:04;94593.94;;;1.42;55.75
35888;BME280;21990;42.540;23.496;2023-02-11T14:35:31;94577.66;;;1.31;57.35
35888;BME280;21990;42.540;23.496;2023-02-11T14:41:18;94582.56;;;1.15;58.35
35888;BME280;21990;42.540;23.496;2023-02-11T14:43:54;94580.22;;;1.13;58.25
35888;BME280;21990;42.540;23.496;2023-02-11T14:46:22;94580.22;;;1.13;58.83
35888;BME280;21990;42.540;23.496;2023-02-11T14:48:52;94580.34;;;1.10;58.39
35888;BME280;21990;42.540;23.496;2023-02-11T14:53:57;94591.22;;;1.17;58.74
35888;BME280;21990;42.540;23.496;2023-02-11T14:56:28;94582.34;;;1.09;58.93
35888;BME280;21990;42.540;23.496;2023-02-11T14:58:55;94590.69;;;1.09;58.66
35888;BME280;21990;42.540;23.496;2023-02-11T15:03:53;94593.81;;;0.99;58.94
35888;BME280;21990;42.540;23.496;2023-02-11T15:09:20;94590.19;;;0.89;57.76
35888;BME280;21990;42.540;23.496;2023-02-11T15:11:49;94589.41;;;0.76;58.92
35888;BME280;21990;42.540;23.496;2023-02-11T15:14:28;94582.19;;;0.78;59.31
35888;BME280;21990;42.540;23.496;2023-02-11T15:17:03;94581.41;;;0.78;59.15
35888;BME280;21990;42.540;23.496;2023-02-11T15:19:43;94587.63;;;0.69;59.54
35888;BME280;21990;42.540;23.496;2023-02-11T15:22:22;94582.28;;;0.75;60.05